sensor_id;sensor_type;location;lat;lon;timestamp;temperature;humidity
11704;DHT22;5908;51.354;7.458;2023-04-25T00:01:46;7.30;99.90
11704;DHT22;5908;51.354;7.458;2023-04-25T00:04:12;7.20;99.90
11704;DHT22;5908;51.354;7.458;2023-04-25T00:06:39;7.10;99.90
11704;DHT22;5908;51.354;7.458;2023-04-25T00:09:07;7.00;99.90
11704;DHT22;5908;51.354;7.458;2023-04-25T00:11:35;7.00;99.90
11704;DHT22;5908;51.354;7.458;2023-04-25T00:14:02;7.00;99.90
11704;DHT22;5908;51.354;7.458;2023-04-25T00:16:29;7.10;99.90
11704;DHT22;5908;51.354;7.458;2023-04-25T00:18:59;7.20;99.90
11704;DHT22;5908;51.354;7.458;2023-04-25T00:21:26;7.30;99.90
11704;DHT22;5908;51.354;7.458;2023-04-25T00:23:54;7.50;99.90
11704;DHT22;5908;51.354;7.458;2023-04-25T00:26:22;7.60;99.90
11704;DHT22;5908;51.354;7.458;2023-04-25T00:28:49;7.70;99.90
11704;DHT22;5908;51.354;7.458;2023-04-25T00:31:15;7.80;99.90
11704;DHT22;5908;51.354;7.458;2023-04-25T00:33:42;7.90;99.90
11704;DHT22;5908;51.354;7.458;2023-04-25T00:36:09;8.00;99.90
11704;DHT22;5908;51.354;7.458;2023-04-25T00:38:36;8.00;99.90
11704;DHT22;5908;51.354;7.458;2023-04-25T00:41:05;8.10;99.90
11704;DHT22;5908;51.354;7.458;2023-04-25T00:43:33;8.10;99.90
11704;DHT22;5908;51.354;7.458;2023-04-25T00:46:01;8.10;99.90
11704;DHT22;5908;51.354;7.458;2023-04-25T00:48:27;8.20;99.90
11704;DHT22;5908;51.354;7.458;2023-04-25T00:50:57;8.20;99.90
11704;DHT22;5908;51.354;7.458;2023-04-25T00:53:26;8.20;99.90
11704;DHT22;5908;51.354;7.458;2023-04-25T00:55:53;8.20;99.90
11704;DHT22;5908;51.354;7.458;2023-04-25T00:58:21;8.20;99.90
11704;DHT22;5908;51.354;7.458;2023-04-25T01:00:51;8.30;99.90
11704;DHT22;5908;51.354;7.458;2023-04-25T01:03:18;8.30;99.90
11704;DHT22;5908;51.354;7.458;2023-04-25T01:05:46;8.30;99.90
11704;DHT22;5908;51.354;7.458;2023-04-25T01:08:13;8.30;99.90
11704;DHT22;5908;51.354;7.458;2023-04-25T01:10:40;8.40;99.90
11704;DHT22;5908;51.354;7.458;2023-04-25T01:13:07;8.30;99.90
11704;DHT22;5908;51.354;7.458;2023-04-25T01:15:34;8.50;99.90
11704;DHT22;5908;51.354;7.458;2023-04-25T01:18:03;8.30;99.90
11704;DHT22;5908;51.354;7.458;2023-04-25T01:20:32;8.30;99.90
11704;DHT22;5908;51.354;7.458;2023-04-25T01:23:01;8.40;99.90
11704;DHT22;5908;51.354;7.458;2023-04-25T01:25:29;8.40;99.90
11704;DHT22;5908;51.354;7.458;2023-04-25T01:27:56;8.40;99.90
11704;DHT22;5908;51.354;7.458;2023-04-25T01:30:24;8.40;99.90
11704;DHT22;5908;51.354;7.458;2023-04-25T01:32:53;8.40;99.90
11704;DHT22;5908;51.354;7.458;2023-04-25T01:35:20;8.40;99.90
11704;DHT22;5908;51.354;7.458;2023-04-25T01:37:49;8.40;99.90
11704;DHT22;5908;51.354;7.458;2023-04-25T01:40:18;8.40;99.90
11704;DHT22;5908;51.354;7.458;2023-04-25T01:42:45;8.40;99.90
11704;DHT22;5908;51.354;7.458;2023-04-25T01:45:12;8.50;99.90
11704;DHT22;5908;51.354;7.458;2023-04-25T01:47:39;8.50;99.90
11704;DHT22;5908;51.354;7.458;2023-04-25T01:50:09;8.50;99.90
11704;DHT22;5908;51.354;7.458;2023-04-25T01:52:36;8.50;99.90
11704;DHT22;5908;51.354;7.458;2023-04-25T01:55:05;8.50;99.90
11704;DHT22;5908;51.354;7.458;2023-04-25T01:57:33;8.50;99.90
11704;DHT22;5908;51.354;7.458;2023-04-25T02:00:02;8.60;99.90
11704;DHT22;5908;51.354;7.458;2023-04-25T02:02:30;8.50;99.90
11704;DHT22;5908;51.354;7.458;2023-04-25T02:04:56;8.50;99.90
11704;DHT22;5908;51.354;7.458;2023-04-25T02:07:23;8.40;99.90
11704;DHT22;5908;51.354;7.458;2023-04-25T02:09:50;8.30;99.90
11704;DHT22;5908;51.354;7.458;2023-04-25T02:12:17;8.30;99.90
11704;DHT22;5908;51.354;7.458;2023-04-25T02:14:45;8.20;99.90
11704;DHT22;5908;51.354;7.458;2023-04-25T02:17:12;8.20;99.90
11704;DHT22;5908;51.354;7.458;2023-04-25T02:19:39;8.20;99.90
11704;DHT22;5908;51.354;7.458;2023-04-25T02:22:05;8.20;99.90
11704;DHT22;5908;51.354;7.458;2023-04-25T02:24:32;8.20;99.90
11704;DHT22;5908;51.354;7.458;2023-04-25T02:27:00;8.10;99.90
11704;DHT22;5908;51.354;7.458;2023-04-25T02:29:27;8.20;99.90
11704;DHT22;5908;51.354;7.458;2023-04-25T02:31:55;8.10;99.90
11704;DHT22;5908;51.354;7.458;2023-04-25T02:34:22;8.20;99.90
11704;DHT22;5908;51.354;7.458;2023-04-25T02:36:49;8.10;99.90
11704;DHT22;5908;51.354;7.458;2023-04-25T02:39:16;8.10;99.90
11704;DHT22;5908;51.354;7.458;2023-04-25T02:41:43;8.20;99.90
11704;DHT22;5908;51.354;7.458;2023-04-25T02:44:09;8.20;99.90
11704;DHT22;5908;51.354;7.458;2023-04-25T02:46:36;8.20;99.90
11704;DHT22;5908;51.354;7.458;2023-04-25T02:49:04;8.20;99.90
11704;DHT22;5908;51.354;7.458;2023-04-25T02:51:31;8.20;99.90
11704;DHT22;5908;51.354;7.458;2023-04-25T02:53:58;8.20;99.90
11704;DHT22;5908;51.354;7.458;2023-04-25T02:56:25;8.20;99.90
11704;DHT22;5908;51.354;7.458;2023-04-25T02:58:52;8.20;99.90
11704;DHT22;5908;51.354;7.458;2023-04-25T03:01:19;8.20;99.90
11704;DHT22;5908;51.354;7.458;2023-04-25T03:03:46;8.20;99.90
11704;DHT22;5908;51.354;7.458;2023-04-25T03:06:14;8.20;99.90
11704;DHT22;5908;51.354;7.458;2023-04-25T03:08:41;8.20;99.90
11704;DHT22;5908;51.354;7.458;2023-04-25T03:11:08;8.20;99.90
11704;DHT22;5908;51.354;7.458;2023-04-25T03:13:35;8.30;99.90
11704;DHT22;5908;51.354;7.458;2023-04-25T03:16:02;8.30;99.90
11704;DHT22;5908;51.354;7.458;2023-04-25T03:18:29;8.30;99.90
11704;DHT22;5908;51.354;7.458;2023-04-25T03:20:56;8.30;99.90
11704;DHT22;5908;51.354;7.458;2023-04-25T03:23:24;8.40;99.90
11704;DHT22;5908;51.354;7.458;2023-04-25T03:25:51;8.30;99.90
11704;DHT22;5908;51.354;7.458;2023-04-25T03:28:18;8.30;99.90
11704;DHT22;5908;51.354;7.458;2023-04-25T03:30:45;8.30;99.90
11704;DHT22;5908;51.354;7.458;2023-04-25T03:33:12;8.30;99.90
11704;DHT22;5908;51.354;7.458;2023-04-25T03:35:38;8.10;99.90
11704;DHT22;5908;51.354;7.458;2023-04-25T03:38:05;8.00;99.90
11704;DHT22;5908;51.354;7.458;2023-04-25T03:40:33;7.90;99.90
11704;DHT22;5908;51.354;7.458;2023-04-25T03:43:00;7.70;99.90
11704;DHT22;5908;51.354;7.458;2023-04-25T03:45:27;7.70;99.90
11704;DHT22;5908;51.354;7.458;2023-04-25T03:47:54;7.70;99.90
11704;DHT22;5908;51.354;7.458;2023-04-25T03:50:20;7.60;99.90
11704;DHT22;5908;51.354;7.458;2023-04-25T03:52:47;7.60;99.90
11704;DHT22;5908;51.354;7.458;2023-04-25T03:55:14;7.50;99.90
11704;DHT22;5908;51.354;7.458;2023-04-25T03:57:42;7.40;99.90
11704;DHT22;5908;51.354;7.458;2023-04-25T04:00:10;7.40;99.90
11704;DHT22;5908;51.354;7.458;2023-04-25T04:02:37;7.50;99.90
11704;DHT22;5908;51.354;7.458;2023-04-25T04:05:04;7.60;99.90
11704;DHT22;5908;51.354;7.458;2023-04-25T04:07:32;7.60;99.90
11704;DHT22;5908;51.354;7.458;2023-04-25T04:10:02;7.70;99.90
11704;DHT22;5908;51.354;7.458;2023-04-25T04:12:30;7.80;99.90
11704;DHT22;5908;51.354;7.458;2023-04-25T04:14:58;7.80;99.90
11704;DHT22;5908;51.354;7.458;2023-04-25T04:17:25;7.80;99.90
11704;DHT22;5908;51.354;7.458;2023-04-25T04:19:52;7.80;99.90
11704;DHT22;5908;51.354;7.458;2023-04-25T04:22:19;7.70;99.90
11704;DHT22;5908;51.354;7.458;2023-04-25T04:24:45;7.70;99.90
11704;DHT22;5908;51.354;7.458;2023-04-25T04:27:12;7.80;99.90
11704;DHT22;5908;51.354;7.458;2023-04-25T04:29:39;7.80;99.90
11704;DHT22;5908;51.354;7.458;2023-04-25T04:32:08;7.80;99.90
11704;DHT22;5908;51.354;7.458;2023-04-25T04:34:35;7.90;99.90
11704;DHT22;5908;51.354;7.458;2023-04-25T04:37:02;7.90;99.90
11704;DHT22;5908;51.354;7.458;2023-04-25T04:39:28;7.90;99.90
11704;DHT22;5908;51.354;7.458;2023-04-25T04:41:55;8.00;99.90
11704;DHT22;5908;51.354;7.458;2023-04-25T04:44:22;8.00;99.90
11704;DHT22;5908;51.354;7.458;2023-04-25T04:46:49;8.00;99.90
11704;DHT22;5908;51.354;7.458;2023-04-25T04:49:17;8.00;99.90
11704;DHT22;5908;51.354;7.458;2023-04-25T04:51:44;8.10;99.90
11704;DHT22;5908;51.354;7.458;2023-04-25T04:54:11;8.10;99.90
11704;DHT22;5908;51.354;7.458;2023-04-25T04:56:37;8.10;99.90
11704;DHT22;5908;51.354;7.458;2023-04-25T04:59:04;8.10;99.90
11704;DHT22;5908;51.354;7.458;2023-04-25T05:01:32;8.10;99.90
11704;DHT22;5908;51.354;7.458;2023-04-25T05:04:00;8.10;99.90
11704;DHT22;5908;51.354;7.458;2023-04-25T05:06:30;8.20;99.90
11704;DHT22;5908;51.354;7.458;2023-04-25T05:08:57;8.20;99.90
11704;DHT22;5908;51.354;7.458;2023-04-25T05:11:24;8.20;99.90
11704;DHT22;5908;51.354;7.458;2023-04-25T05:13:51;8.20;99.90
11704;DHT22;5908;51.354;7.458;2023-04-25T05:16:18;8.20;99.90
11704;DHT22;5908;51.354;7.458;2023-04-25T05:18:46;8.10;99.90
11704;DHT22;5908;51.354;7.458;2023-04-25T05:21:13;8.00;99.90
11704;DHT22;5908;51.354;7.458;2023-04-25T05:23:41;8.00;99.90
11704;DHT22;5908;51.354;7.458;2023-04-25T05:26:08;7.90;99.90
11704;DHT22;5908;51.354;7.458;2023-04-25T05:28:39;7.90;99.90
11704;DHT22;5908;51.354;7.458;2023-04-25T05:31:06;7.80;99.90
11704;DHT22;5908;51.354;7.458;2023-04-25T05:33:33;7.90;99.90
11704;DHT22;5908;51.354;7.458;2023-04-25T05:36:00;7.80;99.90
11704;DHT22;5908;51.354;7.458;2023-04-25T05:38:27;7.80;99.90
11704;DHT22;5908;51.354;7.458;2023-04-25T05:40:55;7.70;99.90
11704;DHT22;5908;51.354;7.458;2023-04-25T05:43:21;7.70;99.90
11704;DHT22;5908;51.354;7.458;2023-04-25T05:45:48;7.70;99.90
11704;DHT22;5908;51.354;7.458;2023-04-25T05:48:15;7.70;99.90
11704;DHT22;5908;51.354;7.458;2023-04-25T05:50:42;7.90;99.90
11704;DHT22;5908;51.354;7.458;2023-04-25T05:53:09;8.00;99.90
11704;DHT22;5908;51.354;7.458;2023-04-25T05:55:36;8.10;99.90
11704;DHT22;5908;51.354;7.458;2023-04-25T05:58:05;8.30;99.90
11704;DHT22;5908;51.354;7.458;2023-04-25T06:00:32;8.50;99.90
11704;DHT22;5908;51.354;7.458;2023-04-25T06:02:59;8.70;99.90
11704;DHT22;5908;51.354;7.458;2023-04-25T06:05:26;9.00;99.90
11704;DHT22;5908;51.354;7.458;2023-04-25T06:07:53;9.30;99.90
11704;DHT22;5908;51.354;7.458;2023-04-25T06:10:20;9.50;99.90
11704;DHT22;5908;51.354;7.458;2023-04-25T06:12:46;9.80;99.90
11704;DHT22;5908;51.354;7.458;2023-04-25T06:15:15;9.90;99.90
11704;DHT22;5908;51.354;7.458;2023-04-25T06:17:42;10.00;99.90
11704;DHT22;5908;51.354;7.458;2023-04-25T06:20:09;10.10;99.90
11704;DHT22;5908;51.354;7.458;2023-04-25T06:22:36;10.20;99.90
11704;DHT22;5908;51.354;7.458;2023-04-25T06:25:04;10.40;99.90
11704;DHT22;5908;51.354;7.458;2023-04-25T06:27:30;10.50;99.90
11704;DHT22;5908;51.354;7.458;2023-04-25T06:29:57;10.60;99.90
11704;DHT22;5908;51.354;7.458;2023-04-25T06:32:25;10.70;99.90
11704;DHT22;5908;51.354;7.458;2023-04-25T06:34:54;10.70;99.90
11704;DHT22;5908;51.354;7.458;2023-04-25T06:37:20;10.80;99.90
11704;DHT22;5908;51.354;7.458;2023-04-25T06:39:47;10.80;99.90
11704;DHT22;5908;51.354;7.458;2023-04-25T06:42:14;10.80;99.90
11704;DHT22;5908;51.354;7.458;2023-04-25T06:44:41;10.90;99.90
11704;DHT22;5908;51.354;7.458;2023-04-25T06:47:07;10.90;99.90
11704;DHT22;5908;51.354;7.458;2023-04-25T06:49:35;10.80;99.90
11704;DHT22;5908;51.354;7.458;2023-04-25T06:52:02;10.80;99.90
11704;DHT22;5908;51.354;7.458;2023-04-25T06:54:29;10.80;99.90
11704;DHT22;5908;51.354;7.458;2023-04-25T06:56:56;10.90;99.90
11704;DHT22;5908;51.354;7.458;2023-04-25T06:59:23;11.10;99.70
11704;DHT22;5908;51.354;7.458;2023-04-25T07:01:50;11.30;98.90
11704;DHT22;5908;51.354;7.458;2023-04-25T07:04:16;11.20;97.70
11704;DHT22;5908;51.354;7.458;2023-04-25T07:06:45;11.20;98.00
11704;DHT22;5908;51.354;7.458;2023-04-25T07:09:13;11.30;97.70
11704;DHT22;5908;51.354;7.458;2023-04-25T07:11:40;11.40;97.10
11704;DHT22;5908;51.354;7.458;2023-04-25T07:14:06;11.60;96.40
11704;DHT22;5908;51.354;7.458;2023-04-25T07:16:33;11.80;95.50
11704;DHT22;5908;51.354;7.458;2023-04-25T07:19:00;12.10;94.70
11704;DHT22;5908;51.354;7.458;2023-04-25T07:21:26;12.30;94.10
11704;DHT22;5908;51.354;7.458;2023-04-25T07:23:55;12.20;94.50
11704;DHT22;5908;51.354;7.458;2023-04-25T07:26:21;12.10;94.70
11704;DHT22;5908;51.354;7.458;2023-04-25T07:28:48;12.10;94.30
11704;DHT22;5908;51.354;7.458;2023-04-25T07:31:16;11.90;94.40
11704;DHT22;5908;51.354;7.458;2023-04-25T07:33:43;11.80;94.80
11704;DHT22;5908;51.354;7.458;2023-04-25T07:36:11;11.80;94.80
11704;DHT22;5908;51.354;7.458;2023-04-25T07:38:38;11.90;93.60
11704;DHT22;5908;51.354;7.458;2023-04-25T07:41:06;12.10;93.40
11704;DHT22;5908;51.354;7.458;2023-04-25T07:43:33;12.40;92.80
11704;DHT22;5908;51.354;7.458;2023-04-25T07:45:59;12.50;92.30
11704;DHT22;5908;51.354;7.458;2023-04-25T07:48:26;12.30;92.50
11704;DHT22;5908;51.354;7.458;2023-04-25T07:50:53;11.90;91.80
11704;DHT22;5908;51.354;7.458;2023-04-25T07:53:20;11.50;91.70
11704;DHT22;5908;51.354;7.458;2023-04-25T07:55:46;11.10;92.50
11704;DHT22;5908;51.354;7.458;2023-04-25T07:58:15;11.00;93.10
11704;DHT22;5908;51.354;7.458;2023-04-25T08:00:46;10.80;93.70
11704;DHT22;5908;51.354;7.458;2023-04-25T08:03:13;10.50;96.00
11704;DHT22;5908;51.354;7.458;2023-04-25T08:05:40;10.20;98.00
11704;DHT22;5908;51.354;7.458;2023-04-25T08:08:10;10.10;99.90
11704;DHT22;5908;51.354;7.458;2023-04-25T08:10:36;10.10;99.90
11704;DHT22;5908;51.354;7.458;2023-04-25T08:13:03;10.30;99.90
11704;DHT22;5908;51.354;7.458;2023-04-25T08:15:31;10.60;99.90
11704;DHT22;5908;51.354;7.458;2023-04-25T08:17:58;11.10;99.20
11704;DHT22;5908;51.354;7.458;2023-04-25T08:20:25;11.40;97.70
11704;DHT22;5908;51.354;7.458;2023-04-25T08:22:51;11.80;96.70
11704;DHT22;5908;51.354;7.458;2023-04-25T08:25:18;12.20;95.10
11704;DHT22;5908;51.354;7.458;2023-04-25T08:27:45;12.50;94.10
11704;DHT22;5908;51.354;7.458;2023-04-25T08:30:12;12.70;93.30
11704;DHT22;5908;51.354;7.458;2023-04-25T08:32:40;12.70;92.80
11704;DHT22;5908;51.354;7.458;2023-04-25T08:35:08;12.80;92.20
11704;DHT22;5908;51.354;7.458;2023-04-25T08:37:34;12.80;91.70
11704;DHT22;5908;51.354;7.458;2023-04-25T08:40:01;12.90;91.00
11704;DHT22;5908;51.354;7.458;2023-04-25T08:42:33;12.90;91.00
11704;DHT22;5908;51.354;7.458;2023-04-25T08:45:01;12.80;91.30
11704;DHT22;5908;51.354;7.458;2023-04-25T08:47:30;12.70;90.20
11704;DHT22;5908;51.354;7.458;2023-04-25T08:50:01;12.90;89.50
11704;DHT22;5908;51.354;7.458;2023-04-25T08:52:32;13.40;87.80
11704;DHT22;5908;51.354;7.458;2023-04-25T08:55:02;13.70;87.00
11704;DHT22;5908;51.354;7.458;2023-04-25T08:57:31;13.60;86.10
11704;DHT22;5908;51.354;7.458;2023-04-25T08:59:58;13.90;84.60
11704;DHT22;5908;51.354;7.458;2023-04-25T09:02:25;13.90;83.80
11704;DHT22;5908;51.354;7.458;2023-04-25T09:04:52;13.80;82.40
11704;DHT22;5908;51.354;7.458;2023-04-25T09:07:21;13.70;81.90
11704;DHT22;5908;51.354;7.458;2023-04-25T09:09:48;13.60;83.20
11704;DHT22;5908;51.354;7.458;2023-04-25T09:12:15;13.50;81.90
11704;DHT22;5908;51.354;7.458;2023-04-25T09:14:42;13.60;81.30
11704;DHT22;5908;51.354;7.458;2023-04-25T09:17:09;14.00;80.70
11704;DHT22;5908;51.354;7.458;2023-04-25T09:19:36;14.20;79.40
11704;DHT22;5908;51.354;7.458;2023-04-25T09:22:06;14.40;78.10
11704;DHT22;5908;51.354;7.458;2023-04-25T09:24:35;14.50;75.90
11704;DHT22;5908;51.354;7.458;2023-04-25T09:27:06;14.40;77.40
11704;DHT22;5908;51.354;7.458;2023-04-25T09:29:35;14.30;77.50
11704;DHT22;5908;51.354;7.458;2023-04-25T09:32:18;14.60;75.60
11704;DHT22;5908;51.354;7.458;2023-04-25T09:34:47;14.20;77.30
11704;DHT22;5908;51.354;7.458;2023-04-25T09:37:17;13.90;77.30
11704;DHT22;5908;51.354;7.458;2023-04-25T09:39:47;13.50;76.40
11704;DHT22;5908;51.354;7.458;2023-04-25T09:42:15;13.40;75.80
11704;DHT22;5908;51.354;7.458;2023-04-25T09:44:43;13.60;76.20
11704;DHT22;5908;51.354;7.458;2023-04-25T09:47:11;13.90;76.30
11704;DHT22;5908;51.354;7.458;2023-04-25T09:49:39;14.10;75.00
11704;DHT22;5908;51.354;7.458;2023-04-25T09:52:07;14.40;73.40
11704;DHT22;5908;51.354;7.458;2023-04-25T09:54:34;14.60;72.20
11704;DHT22;5908;51.354;7.458;2023-04-25T09:57:08;14.50;72.20
11704;DHT22;5908;51.354;7.458;2023-04-25T09:59:39;14.70;73.30
11704;DHT22;5908;51.354;7.458;2023-04-25T10:02:07;15.00;72.80
11704;DHT22;5908;51.354;7.458;2023-04-25T10:04:35;15.00;70.20
11704;DHT22;5908;51.354;7.458;2023-04-25T10:07:03;14.90;69.50
11704;DHT22;5908;51.354;7.458;2023-04-25T10:09:32;14.80;69.60
11704;DHT22;5908;51.354;7.458;2023-04-25T10:12:01;14.80;68.90
11704;DHT22;5908;51.354;7.458;2023-04-25T10:14:29;14.70;70.00
11704;DHT22;5908;51.354;7.458;2023-04-25T10:16:57;14.70;69.70
11704;DHT22;5908;51.354;7.458;2023-04-25T10:19:25;14.80;70.40
11704;DHT22;5908;51.354;7.458;2023-04-25T10:21:54;14.90;70.40
11704;DHT22;5908;51.354;7.458;2023-04-25T10:24:22;15.20;70.30
11704;DHT22;5908;51.354;7.458;2023-04-25T10:26:50;15.20;69.20
11704;DHT22;5908;51.354;7.458;2023-04-25T10:29:23;15.10;69.80
11704;DHT22;5908;51.354;7.458;2023-04-25T10:31:50;14.70;69.50
11704;DHT22;5908;51.354;7.458;2023-04-25T10:34:18;14.40;71.50
11704;DHT22;5908;51.354;7.458;2023-04-25T10:36:49;14.00;75.80
11704;DHT22;5908;51.354;7.458;2023-04-25T10:39:22;13.60;75.20
11704;DHT22;5908;51.354;7.458;2023-04-25T10:41:53;13.40;76.30
11704;DHT22;5908;51.354;7.458;2023-04-25T10:44:23;13.80;73.80
11704;DHT22;5908;51.354;7.458;2023-04-25T10:46:52;14.00;72.50
11704;DHT22;5908;51.354;7.458;2023-04-25T10:49:29;14.20;73.20
11704;DHT22;5908;51.354;7.458;2023-04-25T10:52:24;14.70;70.30
11704;DHT22;5908;51.354;7.458;2023-04-25T10:54:53;15.00;69.90
11704;DHT22;5908;51.354;7.458;2023-04-25T10:57:30;15.00;69.00
11704;DHT22;5908;51.354;7.458;2023-04-25T11:00:13;14.80;68.90
11704;DHT22;5908;51.354;7.458;2023-04-25T11:02:45;14.80;67.70
11704;DHT22;5908;51.354;7.458;2023-04-25T11:05:20;14.40;67.40
11704;DHT22;5908;51.354;7.458;2023-04-25T11:07:50;14.00;67.50
11704;DHT22;5908;51.354;7.458;2023-04-25T11:10:18;13.50;69.00
11704;DHT22;5908;51.354;7.458;2023-04-25T11:12:45;13.40;69.70
11704;DHT22;5908;51.354;7.458;2023-04-25T11:15:14;13.40;69.70
11704;DHT22;5908;51.354;7.458;2023-04-25T11:17:41;13.60;69.50
11704;DHT22;5908;51.354;7.458;2023-04-25T11:20:09;14.00;73.00
11704;DHT22;5908;51.354;7.458;2023-04-25T11:22:37;14.30;71.10
11704;DHT22;5908;51.354;7.458;2023-04-25T11:25:06;14.80;69.10
11704;DHT22;5908;51.354;7.458;2023-04-25T11:27:33;15.20;67.70
11704;DHT22;5908;51.354;7.458;2023-04-25T11:30:10;15.60;66.50
11704;DHT22;5908;51.354;7.458;2023-04-25T11:32:40;15.50;64.70
11704;DHT22;5908;51.354;7.458;2023-04-25T11:35:08;15.10;66.50
11704;DHT22;5908;51.354;7.458;2023-04-25T11:37:35;14.70;67.50
11704;DHT22;5908;51.354;7.458;2023-04-25T11:40:03;14.20;67.20
11704;DHT22;5908;51.354;7.458;2023-04-25T11:42:31;13.90;68.80
11704;DHT22;5908;51.354;7.458;2023-04-25T11:44:58;13.90;69.70
11704;DHT22;5908;51.354;7.458;2023-04-25T11:47:28;14.00;71.70
11704;DHT22;5908;51.354;7.458;2023-04-25T11:49:57;14.10;72.70
11704;DHT22;5908;51.354;7.458;2023-04-25T11:52:24;14.20;73.00
11704;DHT22;5908;51.354;7.458;2023-04-25T11:54:51;14.30;73.60
11704;DHT22;5908;51.354;7.458;2023-04-25T11:57:19;14.40;73.90
11704;DHT22;5908;51.354;7.458;2023-04-25T11:59:46;14.50;73.20
11704;DHT22;5908;51.354;7.458;2023-04-25T12:02:24;14.10;75.70
11704;DHT22;5908;51.354;7.458;2023-04-25T12:04:52;13.70;75.70
11704;DHT22;5908;51.354;7.458;2023-04-25T12:07:20;13.60;75.60
11704;DHT22;5908;51.354;7.458;2023-04-25T12:09:51;13.70;75.10
11704;DHT22;5908;51.354;7.458;2023-04-25T12:12:19;13.90;75.00
11704;DHT22;5908;51.354;7.458;2023-04-25T12:14:47;14.30;74.00
11704;DHT22;5908;51.354;7.458;2023-04-25T12:17:14;14.60;72.50
11704;DHT22;5908;51.354;7.458;2023-04-25T12:19:41;14.80;71.70
11704;DHT22;5908;51.354;7.458;2023-04-25T12:22:21;14.70;70.80
11704;DHT22;5908;51.354;7.458;2023-04-25T12:24:48;14.20;70.70
11704;DHT22;5908;51.354;7.458;2023-04-25T12:27:16;13.70;70.50
11704;DHT22;5908;51.354;7.458;2023-04-25T12:29:51;13.20;72.20
11704;DHT22;5908;51.354;7.458;2023-04-25T12:32:18;13.00;73.50
11704;DHT22;5908;51.354;7.458;2023-04-25T12:34:45;12.90;73.30
11704;DHT22;5908;51.354;7.458;2023-04-25T12:37:11;12.80;73.20
11704;DHT22;5908;51.354;7.458;2023-04-25T12:39:40;12.80;74.30
11704;DHT22;5908;51.354;7.458;2023-04-25T12:42:06;12.60;74.70
11704;DHT22;5908;51.354;7.458;2023-04-25T12:44:37;12.50;75.50
11704;DHT22;5908;51.354;7.458;2023-04-25T12:47:04;12.60;75.00
11704;DHT22;5908;51.354;7.458;2023-04-25T12:49:30;12.70;74.00
11704;DHT22;5908;51.354;7.458;2023-04-25T12:51:57;12.90;72.80
11704;DHT22;5908;51.354;7.458;2023-04-25T12:54:24;12.90;72.30
11704;DHT22;5908;51.354;7.458;2023-04-25T12:56:53;13.00;72.10
11704;DHT22;5908;51.354;7.458;2023-04-25T12:59:20;13.20;71.30
11704;DHT22;5908;51.354;7.458;2023-04-25T13:01:47;13.50;70.20
11704;DHT22;5908;51.354;7.458;2023-04-25T13:04:14;13.80;67.30
11704;DHT22;5908;51.354;7.458;2023-04-25T13:06:41;14.10;66.70
11704;DHT22;5908;51.354;7.458;2023-04-25T13:09:08;14.20;66.30
11704;DHT22;5908;51.354;7.458;2023-04-25T13:11:35;14.20;65.90
11704;DHT22;5908;51.354;7.458;2023-04-25T13:14:04;14.20;66.50
11704;DHT22;5908;51.354;7.458;2023-04-25T13:16:32;14.30;66.30
11704;DHT22;5908;51.354;7.458;2023-04-25T13:18:58;14.50;66.50
11704;DHT22;5908;51.354;7.458;2023-04-25T13:21:25;14.50;66.90
11704;DHT22;5908;51.354;7.458;2023-04-25T13:23:52;14.40;67.10
11704;DHT22;5908;51.354;7.458;2023-04-25T13:26:19;14.40;67.20
11704;DHT22;5908;51.354;7.458;2023-04-25T13:28:45;14.50;67.60
11704;DHT22;5908;51.354;7.458;2023-04-25T13:31:13;14.70;67.00
11704;DHT22;5908;51.354;7.458;2023-04-25T13:33:40;15.20;65.20
11704;DHT22;5908;51.354;7.458;2023-04-25T13:36:07;15.40;65.50
11704;DHT22;5908;51.354;7.458;2023-04-25T13:38:34;15.30;65.80
11704;DHT22;5908;51.354;7.458;2023-04-25T13:41:01;15.00;66.40
11704;DHT22;5908;51.354;7.458;2023-04-25T13:43:27;14.60;66.70
11704;DHT22;5908;51.354;7.458;2023-04-25T13:45:54;14.00;68.30
11704;DHT22;5908;51.354;7.458;2023-04-25T13:48:23;13.60;69.40
11704;DHT22;5908;51.354;7.458;2023-04-25T13:50:50;13.30;70.70
11704;DHT22;5908;51.354;7.458;2023-04-25T13:53:17;13.00;73.60
11704;DHT22;5908;51.354;7.458;2023-04-25T13:55:44;12.50;77.90
11704;DHT22;5908;51.354;7.458;2023-04-25T13:58:11;12.00;84.90
11704;DHT22;5908;51.354;7.458;2023-04-25T14:00:38;11.70;83.20
11704;DHT22;5908;51.354;7.458;2023-04-25T14:03:05;11.60;86.70
11704;DHT22;5908;51.354;7.458;2023-04-25T14:05:35;11.70;88.40
11704;DHT22;5908;51.354;7.458;2023-04-25T14:08:05;11.90;88.00
11704;DHT22;5908;51.354;7.458;2023-04-25T14:10:32;12.30;85.50
11704;DHT22;5908;51.354;7.458;2023-04-25T14:12:59;12.50;84.10
11704;DHT22;5908;51.354;7.458;2023-04-25T14:15:26;12.80;81.80
11704;DHT22;5908;51.354;7.458;2023-04-25T14:17:52;13.00;80.80
11704;DHT22;5908;51.354;7.458;2023-04-25T14:20:19;13.30;79.10
11704;DHT22;5908;51.354;7.458;2023-04-25T14:22:48;13.70;78.20
11704;DHT22;5908;51.354;7.458;2023-04-25T14:25:15;13.90;77.20
11704;DHT22;5908;51.354;7.458;2023-04-25T14:27:42;13.90;77.10
11704;DHT22;5908;51.354;7.458;2023-04-25T14:30:11;13.90;76.50
11704;DHT22;5908;51.354;7.458;2023-04-25T14:32:38;13.80;77.60
11704;DHT22;5908;51.354;7.458;2023-04-25T14:35:05;13.70;77.60
11704;DHT22;5908;51.354;7.458;2023-04-25T14:37:32;13.60;77.40
11704;DHT22;5908;51.354;7.458;2023-04-25T14:40:00;13.50;77.20
11704;DHT22;5908;51.354;7.458;2023-04-25T14:42:27;13.30;76.90
11704;DHT22;5908;51.354;7.458;2023-04-25T14:44:54;13.00;77.50
11704;DHT22;5908;51.354;7.458;2023-04-25T14:47:21;12.90;78.20
11704;DHT22;5908;51.354;7.458;2023-04-25T14:49:48;12.80;78.60
11704;DHT22;5908;51.354;7.458;2023-04-25T14:52:19;12.80;78.90
11704;DHT22;5908;51.354;7.458;2023-04-25T14:54:46;12.80;78.60
11704;DHT22;5908;51.354;7.458;2023-04-25T14:57:14;13.00;78.20
11704;DHT22;5908;51.354;7.458;2023-04-25T14:59:42;13.10;77.70
11704;DHT22;5908;51.354;7.458;2023-04-25T15:02:08;13.10;77.30
11704;DHT22;5908;51.354;7.458;2023-04-25T15:04:35;13.50;77.40
11704;DHT22;5908;51.354;7.458;2023-04-25T15:07:02;13.80;74.00
11704;DHT22;5908;51.354;7.458;2023-04-25T15:09:29;13.70;72.20
11704;DHT22;5908;51.354;7.458;2023-04-25T15:11:56;13.80;72.00
11704;DHT22;5908;51.354;7.458;2023-04-25T15:14:25;13.80;70.50
11704;DHT22;5908;51.354;7.458;2023-04-25T15:16:52;13.70;69.60
11704;DHT22;5908;51.354;7.458;2023-04-25T15:19:18;13.40;69.60
11704;DHT22;5908;51.354;7.458;2023-04-25T15:21:45;13.40;70.50
11704;DHT22;5908;51.354;7.458;2023-04-25T15:24:12;13.50;68.80
11704;DHT22;5908;51.354;7.458;2023-04-25T15:26:40;13.70;68.10
11704;DHT22;5908;51.354;7.458;2023-04-25T15:29:07;13.90;68.70
11704;DHT22;5908;51.354;7.458;2023-04-25T15:31:35;14.20;67.40
11704;DHT22;5908;51.354;7.458;2023-04-25T15:34:02;14.30;67.40
11704;DHT22;5908;51.354;7.458;2023-04-25T15:36:29;14.30;67.20
11704;DHT22;5908;51.354;7.458;2023-04-25T15:38:55;14.20;67.90
11704;DHT22;5908;51.354;7.458;2023-04-25T15:41:23;14.00;66.90
11704;DHT22;5908;51.354;7.458;2023-04-25T15:43:50;14.00;67.10
11704;DHT22;5908;51.354;7.458;2023-04-25T15:46:18;13.90;66.60
11704;DHT22;5908;51.354;7.458;2023-04-25T15:48:47;13.90;66.60
11704;DHT22;5908;51.354;7.458;2023-04-25T15:51:14;14.00;66.00
11704;DHT22;5908;51.354;7.458;2023-04-25T15:53:41;14.20;67.30
11704;DHT22;5908;51.354;7.458;2023-04-25T15:56:08;14.30;68.50